sensor_id;sensor_type;location;lat;lon;timestamp;pressure;altitude;pressure_sealevel;temperature;humidity
62634;BME280;48704;50.534;6.442;2023-08-01T00:01:48;94013.88;;;14.30;100.00
62634;BME280;48704;50.534;6.442;2023-08-01T00:04:14;94014.63;;;14.31;100.00
62634;BME280;48704;50.534;6.442;2023-08-01T00:06:39;94050.75;;;14.34;100.00
62634;BME280;48704;50.534;6.442;2023-08-01T00:09:04;94060.88;;;14.37;100.00
62634;BME280;48704;50.534;6.442;2023-08-01T00:11:29;94046.88;;;14.37;100.00
62634;BME280;48704;50.534;6.442;2023-08-01T00:13:55;94036.63;;;14.40;100.00
62634;BME280;48704;50.534;6.442;2023-08-01T00:16:20;94035.66;;;14.37;100.00
62634;BME280;48704;50.534;6.442;2023-08-01T00:18:45;94032.31;;;14.39;100.00
62634;BME280;48704;50.534;6.442;2023-08-01T00:21:10;94042.47;;;14.42;100.00
62634;BME280;48704;50.534;6.442;2023-08-01T00:23:37;94039.88;;;14.44;100.00
62634;BME280;48704;50.534;6.442;2023-08-01T00:26:02;94047.22;;;14.47;100.00
62634;BME280;48704;50.534;6.442;2023-08-01T00:28:29;94040.28;;;14.48;100.00
62634;BME280;48704;50.534;6.442;2023-08-01T00:31:05;94037.69;;;14.50;100.00
62634;BME280;48704;50.534;6.442;2023-08-01T00:33:30;94027.25;;;14.51;100.00
62634;BME280;48704;50.534;6.442;2023-08-01T00:35:56;94021.84;;;14.53;100.00
62634;BME280;48704;50.534;6.442;2023-08-01T00:38:21;94025.63;;;14.55;100.00
62634;BME280;48704;50.534;6.442;2023-08-01T00:40:46;94041.91;;;14.57;100.00
62634;BME280;48704;50.534;6.442;2023-08-01T00:43:12;94025.06;;;14.57;100.00
62634;BME280;48704;50.534;6.442;2023-08-01T00:45:37;94012.78;;;14.60;100.00
62634;BME280;48704;50.534;6.442;2023-08-01T00:48:03;94009.00;;;14.57;100.00
62634;BME280;48704;50.534;6.442;2023-08-01T00:50:28;94012.44;;;14.63;100.00
62634;BME280;48704;50.534;6.442;2023-08-01T00:52:54;94002.53;;;14.62;100.00
62634;BME280;48704;50.534;6.442;2023-08-01T00:55:21;93994.13;;;14.62;100.00
62634;BME280;48704;50.534;6.442;2023-08-01T00:57:47;93989.81;;;14.61;100.00
62634;BME280;48704;50.534;6.442;2023-08-01T01:00:13;93971.69;;;14.62;100.00
62634;BME280;48704;50.534;6.442;2023-08-01T01:02:38;93973.53;;;14.60;100.00
62634;BME280;48704;50.534;6.442;2023-08-01T01:05:04;93975.91;;;14.56;100.00
62634;BME280;48704;50.534;6.442;2023-08-01T01:07:30;93975.38;;;14.57;100.00
62634;BME280;48704;50.534;6.442;2023-08-01T01:09:58;93974.53;;;14.49;100.00
62634;BME280;48704;50.534;6.442;2023-08-01T01:12:23;93966.75;;;14.55;100.00
62634;BME280;48704;50.534;6.442;2023-08-01T01:14:48;93967.84;;;14.52;100.00
62634;BME280;48704;50.534;6.442;2023-08-01T01:17:14;93983.03;;;14.57;100.00
62634;BME280;48704;50.534;6.442;2023-08-01T01:19:39;93987.78;;;14.49;100.00
62634;BME280;48704;50.534;6.442;2023-08-01T01:22:06;93994.16;;;14.49;100.00
62634;BME280;48704;50.534;6.442;2023-08-01T01:24:33;93992.25;;;14.44;100.00
62634;BME280;48704;50.534;6.442;2023-08-01T01:26:59;93981.03;;;14.44;100.00
62634;BME280;48704;50.534;6.442;2023-08-01T01:29:26;93985.00;;;14.49;100.00
62634;BME280;48704;50.534;6.442;2023-08-01T01:31:52;93981.44;;;14.48;100.00
62634;BME280;48704;50.534;6.442;2023-08-01T01:34:18;93970.97;;;14.49;100.00
62634;BME280;48704;50.534;6.442;2023-08-01T01:36:43;93975.81;;;14.48;100.00
62634;BME280;48704;50.534;6.442;2023-08-01T01:39:08;93978.63;;;14.48;100.00
62634;BME280;48704;50.534;6.442;2023-08-01T01:41:34;93980.50;;;14.46;100.00
62634;BME280;48704;50.534;6.442;2023-08-01T01:43:59;93976.19;;;14.45;100.00
62634;BME280;48704;50.534;6.442;2023-08-01T01:46:25;93980.38;;;14.38;100.00
62634;BME280;48704;50.534;6.442;2023-08-01T01:48:50;93990.28;;;14.39;100.00
62634;BME280;48704;50.534;6.442;2023-08-01T01:51:15;93980.59;;;14.27;100.00
62634;BME280;48704;50.534;6.442;2023-08-01T01:53:40;93984.69;;;14.26;100.00
62634;BME280;48704;50.534;6.442;2023-08-01T01:56:06;93982.13;;;14.01;100.00
62634;BME280;48704;50.534;6.442;2023-08-01T01:58:31;93989.66;;;13.93;100.00
62634;BME280;48704;50.534;6.442;2023-08-01T02:00:56;93998.72;;;13.73;100.00
62634;BME280;48704;50.534;6.442;2023-08-01T02:03:22;93999.34;;;13.79;100.00
62634;BME280;48704;50.534;6.442;2023-08-01T02:05:47;94003.44;;;13.65;100.00
62634;BME280;48704;50.534;6.442;2023-08-01T02:08:12;93990.97;;;13.66;100.00
62634;BME280;48704;50.534;6.442;2023-08-01T02:10:37;93988.69;;;13.64;100.00
62634;BME280;48704;50.534;6.442;2023-08-01T02:13:03;93994.63;;;13.61;100.00
62634;BME280;48704;50.534;6.442;2023-08-01T02:15:28;93988.38;;;13.68;100.00
62634;BME280;48704;50.534;6.442;2023-08-01T02:17:54;93982.97;;;13.57;100.00
62634;BME280;48704;50.534;6.442;2023-08-01T02:20:20;93978.78;;;13.50;100.00
62634;BME280;48704;50.534;6.442;2023-08-01T02:22:45;93970.38;;;13.50;100.00
62634;BME280;48704;50.534;6.442;2023-08-01T02:25:10;93982.72;;;13.42;100.00
62634;BME280;48704;50.534;6.442;2023-08-01T02:27:36;93984.78;;;13.41;100.00
62634;BME280;48704;50.534;6.442;2023-08-01T02:30:02;93994.56;;;13.34;100.00
62634;BME280;48704;50.534;6.442;2023-08-01T02:32:27;93997.03;;;13.25;100.00
62634;BME280;48704;50.534;6.442;2023-08-01T02:34:52;93993.84;;;13.15;100.00
62634;BME280;48704;50.534;6.442;2023-08-01T02:37:17;93990.25;;;13.01;100.00
62634;BME280;48704;50.534;6.442;2023-08-01T02:39:43;93986.88;;;12.90;100.00
62634;BME280;48704;50.534;6.442;2023-08-01T02:42:08;93979.56;;;12.87;100.00
62634;BME280;48704;50.534;6.442;2023-08-01T02:44:33;93980.16;;;12.80;100.00
62634;BME280;48704;50.534;6.442;2023-08-01T02:46:59;93996.63;;;12.83;100.00
62634;BME280;48704;50.534;6.442;2023-08-01T02:49:24;93996.94;;;12.80;100.00
62634;BME280;48704;50.534;6.442;2023-08-01T02:51:49;93999.19;;;12.81;100.00
62634;BME280;48704;50.534;6.442;2023-08-01T02:54:15;94002.00;;;12.81;100.00
62634;BME280;48704;50.534;6.442;2023-08-01T02:56:40;94009.84;;;12.83;100.00
62634;BME280;48704;50.534;6.442;2023-08-01T02:59:09;94015.22;;;12.81;100.00
62634;BME280;48704;50.534;6.442;2023-08-01T03:01:35;94015.81;;;12.73;100.00
62634;BME280;48704;50.534;6.442;2023-08-01T03:04:06;94019.44;;;12.68;100.00
62634;BME280;48704;50.534;6.442;2023-08-01T03:06:32;94026.44;;;12.62;100.00
62634;BME280;48704;50.534;6.442;2023-08-01T03:08:58;94025.81;;;12.50;100.00
62634;BME280;48704;50.534;6.442;2023-08-01T03:11:23;94037.00;;;12.50;100.00
62634;BME280;48704;50.534;6.442;2023-08-01T03:13:49;94030.25;;;12.40;100.00
62634;BME280;48704;50.534;6.442;2023-08-01T03:16:14;94056.44;;;12.37;100.00
62634;BME280;48704;50.534;6.442;2023-08-01T03:18:40;94030.03;;;12.38;100.00
62634;BME280;48704;50.534;6.442;2023-08-01T03:21:05;94034.09;;;12.37;100.00
62634;BME280;48704;50.534;6.442;2023-08-01T03:23:31;94041.78;;;12.31;100.00
62634;BME280;48704;50.534;6.442;2023-08-01T03:25:56;94033.66;;;12.33;100.00
62634;BME280;48704;50.534;6.442;2023-08-01T03:28:21;94024.56;;;12.27;100.00
62634;BME280;48704;50.534;6.442;2023-08-01T03:30:47;94025.66;;;12.24;100.00
62634;BME280;48704;50.534;6.442;2023-08-01T03:33:15;94020.28;;;12.26;100.00
62634;BME280;48704;50.534;6.442;2023-08-01T03:35:40;94025.03;;;12.31;100.00
62634;BME280;48704;50.534;6.442;2023-08-01T03:38:05;94012.81;;;12.34;100.00
62634;BME280;48704;50.534;6.442;2023-08-01T03:40:31;94017.94;;;12.30;100.00
62634;BME280;48704;50.534;6.442;2023-08-01T03:42:56;94040.06;;;12.28;100.00
62634;BME280;48704;50.534;6.442;2023-08-01T03:45:21;94025.19;;;12.20;100.00
62634;BME280;48704;50.534;6.442;2023-08-01T03:47:47;94026.41;;;12.24;100.00
62634;BME280;48704;50.534;6.442;2023-08-01T03:50:12;94034.25;;;12.26;100.00
62634;BME280;48704;50.534;6.442;2023-08-01T03:52:38;94028.00;;;12.20;100.00
62634;BME280;48704;50.534;6.442;2023-08-01T03:55:04;94025.66;;;12.24;100.00
62634;BME280;48704;50.534;6.442;2023-08-01T03:57:30;94033.34;;;12.18;100.00
62634;BME280;48704;50.534;6.442;2023-08-01T03:59:55;94030.84;;;12.14;100.00
62634;BME280;48704;50.534;6.442;2023-08-01T04:02:20;94038.53;;;12.08;100.00
62634;BME280;48704;50.534;6.442;2023-08-01T04:04:46;94041.50;;;12.16;100.00
62634;BME280;48704;50.534;6.442;2023-08-01T04:07:11;94048.28;;;12.20;100.00
62634;BME280;48704;50.534;6.442;2023-08-01T04:09:36;94045.78;;;12.17;100.00
62634;BME280;48704;50.534;6.442;2023-08-01T04:12:04;94040.28;;;12.11;100.00
62634;BME280;48704;50.534;6.442;2023-08-01T04:14:32;94046.97;;;12.02;100.00
62634;BME280;48704;50.534;6.442;2023-08-01T04:16:57;94048.69;;;12.05;100.00
62634;BME280;48704;50.534;6.442;2023-08-01T04:19:22;94055.81;;;12.07;100.00
62634;BME280;48704;50.534;6.442;2023-08-01T04:21:48;94071.78;;;12.06;100.00
62634;BME280;48704;50.534;6.442;2023-08-01T04:24:13;94064.00;;;11.99;100.00
62634;BME280;48704;50.534;6.442;2023-08-01T04:26:38;94069.88;;;11.95;100.00
62634;BME280;48704;50.534;6.442;2023-08-01T04:29:04;94070.56;;;12.01;100.00
62634;BME280;48704;50.534;6.442;2023-08-01T04:31:29;94072.66;;;11.95;100.00
62634;BME280;48704;50.534;6.442;2023-08-01T04:33:55;94081.16;;;12.09;100.00
62634;BME280;48704;50.534;6.442;2023-08-01T04:36:20;94078.44;;;12.03;100.00
62634;BME280;48704;50.534;6.442;2023-08-01T04:38:45;94071.84;;;12.00;100.00
62634;BME280;48704;50.534;6.442;2023-08-01T04:41:11;94078.13;;;12.07;100.00
62634;BME280;48704;50.534;6.442;2023-08-01T04:43:36;94069.81;;;12.01;100.00
62634;BME280;48704;50.534;6.442;2023-08-01T04:46:01;94071.63;;;11.98;100.00
62634;BME280;48704;50.534;6.442;2023-08-01T04:48:27;94078.13;;;12.07;100.00
62634;BME280;48704;50.534;6.442;2023-08-01T04:50:52;94074.63;;;12.00;100.00
62634;BME280;48704;50.534;6.442;2023-08-01T04:53:17;94083.25;;;12.02;100.00
62634;BME280;48704;50.534;6.442;2023-08-01T04:58:10;94081.09;;;11.90;100.00
62634;BME280;48704;50.534;6.442;2023-08-01T05:00:35;94086.84;;;11.97;100.00
62634;BME280;48704;50.534;6.442;2023-08-01T05:03:00;94086.38;;;11.93;100.00
62634;BME280;48704;50.534;6.442;2023-08-01T05:05:26;94084.19;;;11.86;100.00
62634;BME280;48704;50.534;6.442;2023-08-01T05:07:51;94090.44;;;11.92;100.00
62634;BME280;48704;50.534;6.442;2023-08-01T05:10:17;94091.69;;;11.97;100.00
62634;BME280;48704;50.534;6.442;2023-08-01T05:12:42;94093.00;;;11.90;100.00
62634;BME280;48704;50.534;6.442;2023-08-01T05:15:07;94090.22;;;11.90;100.00
62634;BME280;48704;50.534;6.442;2023-08-01T05:17:33;94093.63;;;11.83;100.00
62634;BME280;48704;50.534;6.442;2023-08-01T05:19:58;94096.03;;;11.92;100.00
62634;BME280;48704;50.534;6.442;2023-08-01T05:22:23;94095.00;;;11.95;100.00
62634;BME280;48704;50.534;6.442;2023-08-01T05:24:49;94095.00;;;11.95;100.00
62634;BME280;48704;50.534;6.442;2023-08-01T05:27:14;94100.72;;;11.84;100.00
62634;BME280;48704;50.534;6.442;2023-08-01T05:29:39;94100.75;;;12.03;100.00
62634;BME280;48704;50.534;6.442;2023-08-01T05:32:05;94099.19;;;12.08;100.00
62634;BME280;48704;50.534;6.442;2023-08-01T05:34:30;94101.97;;;12.08;100.00
62634;BME280;48704;50.534;6.442;2023-08-01T05:36:55;94101.47;;;12.09;100.00
62634;BME280;48704;50.534;6.442;2023-08-01T05:39:21;94103.97;;;12.13;100.00
62634;BME280;48704;50.534;6.442;2023-08-01T05:41:46;94103.03;;;12.04;100.00
62634;BME280;48704;50.534;6.442;2023-08-01T05:44:11;94098.84;;;12.17;100.00
62634;BME280;48704;50.534;6.442;2023-08-01T05:46:36;94101.13;;;12.18;100.00
62634;BME280;48704;50.534;6.442;2023-08-01T05:49:02;94093.84;;;12.10;100.00
62634;BME280;48704;50.534;6.442;2023-08-01T05:51:27;94099.22;;;12.26;100.00
62634;BME280;48704;50.534;6.442;2023-08-01T05:53:52;94101.13;;;12.37;100.00
62634;BME280;48704;50.534;6.442;2023-08-01T05:56:18;94100.31;;;12.42;100.00
62634;BME280;48704;50.534;6.442;2023-08-01T05:58:43;94109.00;;;12.38;100.00
62634;BME280;48704;50.534;6.442;2023-08-01T06:01:10;94103.94;;;12.37;100.00
62634;BME280;48704;50.534;6.442;2023-08-01T06:03:37;94110.97;;;12.62;100.00
62634;BME280;48704;50.534;6.442;2023-08-01T06:06:02;94100.44;;;12.74;100.00
62634;BME280;48704;50.534;6.442;2023-08-01T06:08:28;94106.84;;;12.69;100.00
62634;BME280;48704;50.534;6.442;2023-08-01T06:10:53;94101.78;;;12.67;100.00
62634;BME280;48704;50.534;6.442;2023-08-01T06:13:18;94103.44;;;12.76;100.00
62634;BME280;48704;50.534;6.442;2023-08-01T06:15:44;94106.31;;;12.70;100.00
62634;BME280;48704;50.534;6.442;2023-08-01T06:18:09;94113.72;;;12.68;100.00
62634;BME280;48704;50.534;6.442;2023-08-01T06:20:36;94110.38;;;12.69;100.00
62634;BME280;48704;50.534;6.442;2023-08-01T06:23:02;94117.34;;;12.63;100.00
62634;BME280;48704;50.534;6.442;2023-08-01T06:25:27;94113.41;;;12.71;100.00
62634;BME280;48704;50.534;6.442;2023-08-01T06:27:52;94108.28;;;12.76;100.00
62634;BME280;48704;50.534;6.442;2023-08-01T06:30:18;94114.41;;;12.93;100.00
62634;BME280;48704;50.534;6.442;2023-08-01T06:32:43;94120.25;;;12.95;100.00
62634;BME280;48704;50.534;6.442;2023-08-01T06:35:08;94122.03;;;12.73;100.00
62634;BME280;48704;50.534;6.442;2023-08-01T06:37:34;94120.81;;;12.69;100.00
62634;BME280;48704;50.534;6.442;2023-08-01T06:39:59;94126.47;;;12.63;100.00
62634;BME280;48704;50.534;6.442;2023-08-01T06:42:24;94128.38;;;12.55;100.00
62634;BME280;48704;50.534;6.442;2023-08-01T06:44:49;94117.66;;;12.59;100.00
62634;BME280;48704;50.534;6.442;2023-08-01T06:47:15;94122.50;;;12.59;100.00
62634;BME280;48704;50.534;6.442;2023-08-01T06:49:40;94114.34;;;12.61;100.00
62634;BME280;48704;50.534;6.442;2023-08-01T06:52:06;94121.97;;;12.60;100.00
62634;BME280;48704;50.534;6.442;2023-08-01T06:54:32;94121.56;;;12.69;100.00
62634;BME280;48704;50.534;6.442;2023-08-01T06:56:57;94121.97;;;12.60;100.00
62634;BME280;48704;50.534;6.442;2023-08-01T06:59:23;94119.91;;;12.61;100.00
62634;BME280;48704;50.534;6.442;2023-08-01T07:01:49;94133.66;;;12.78;100.00
62634;BME280;48704;50.534;6.442;2023-08-01T07:04:14;94126.44;;;12.88;100.00
62634;BME280;48704;50.534;6.442;2023-08-01T07:06:40;94137.63;;;12.88;100.00
62634;BME280;48704;50.534;6.442;2023-08-01T07:09:06;94130.66;;;12.76;100.00
62634;BME280;48704;50.534;6.442;2023-08-01T07:11:31;94144.31;;;12.60;100.00
62634;BME280;48704;50.534;6.442;2023-08-01T07:13:57;94133.31;;;12.44;100.00
62634;BME280;48704;50.534;6.442;2023-08-01T07:16:23;94138.63;;;12.47;100.00
62634;BME280;48704;50.534;6.442;2023-08-01T07:18:48;94149.03;;;12.47;100.00
62634;BME280;48704;50.534;6.442;2023-08-01T07:21:13;94158.75;;;12.40;100.00
62634;BME280;48704;50.534;6.442;2023-08-01T07:23:39;94149.56;;;12.45;100.00
62634;BME280;48704;50.534;6.442;2023-08-01T07:26:04;94173.19;;;12.44;100.00
62634;BME280;48704;50.534;6.442;2023-08-01T07:28:29;94166.09;;;12.43;100.00
62634;BME280;48704;50.534;6.442;2023-08-01T07:31:06;94163.50;;;12.69;100.00
62634;BME280;48704;50.534;6.442;2023-08-01T07:33:32;94170.97;;;12.61;100.00
62634;BME280;48704;50.534;6.442;2023-08-01T07:35:58;94185.28;;;12.52;100.00
62634;BME280;48704;50.534;6.442;2023-08-01T07:38:23;94178.84;;;12.82;100.00
62634;BME280;48704;50.534;6.442;2023-08-01T07:40:49;94191.53;;;12.83;100.00
62634;BME280;48704;50.534;6.442;2023-08-01T07:43:15;94192.78;;;12.87;100.00
62634;BME280;48704;50.534;6.442;2023-08-01T07:45:40;94200.88;;;12.66;100.00
62634;BME280;48704;50.534;6.442;2023-08-01T07:48:06;94196.03;;;12.67;100.00
62634;BME280;48704;50.534;6.442;2023-08-01T07:50:31;94198.78;;;12.72;100.00
62634;BME280;48704;50.534;6.442;2023-08-01T07:52:57;94204.00;;;12.82;100.00
62634;BME280;48704;50.534;6.442;2023-08-01T07:55:22;94214.03;;;12.71;100.00
62634;BME280;48704;50.534;6.442;2023-08-01T07:57:47;94206.00;;;12.62;100.00
62634;BME280;48704;50.534;6.442;2023-08-01T08:00:13;94214.16;;;12.60;100.00
62634;BME280;48704;50.534;6.442;2023-08-01T08:02:40;94218.34;;;12.48;100.00
62634;BME280;48704;50.534;6.442;2023-08-01T08:05:06;94218.88;;;12.22;100.00
62634;BME280;48704;50.534;6.442;2023-08-01T08:07:31;94225.06;;;12.10;100.00
62634;BME280;48704;50.534;6.442;2023-08-01T08:09:57;94223.41;;;11.95;100.00
62634;BME280;48704;50.534;6.442;2023-08-01T08:12:22;94222.22;;;11.85;100.00
62634;BME280;48704;50.534;6.442;2023-08-01T08:14:48;94230.50;;;11.96;100.00
62634;BME280;48704;50.534;6.442;2023-08-01T08:17:13;94227.66;;;12.02;100.00
62634;BME280;48704;50.534;6.442;2023-08-01T08:19:39;94212.16;;;12.07;100.00
62634;BME280;48704;50.534;6.442;2023-08-01T08:22:04;94212.69;;;12.29;100.00
62634;BME280;48704;50.534;6.442;2023-08-01T08:24:30;94217.50;;;12.59;100.00
62634;BME280;48704;50.534;6.442;2023-08-01T08:26:55;94217.16;;;12.62;100.00
62634;BME280;48704;50.534;6.442;2023-08-01T08:29:20;94222.88;;;12.76;100.00
62634;BME280;48704;50.534;6.442;2023-08-01T08:31:46;94216.72;;;13.01;100.00
62634;BME280;48704;50.534;6.442;2023-08-01T08:34:12;94210.75;;;13.11;100.00
62634;BME280;48704;50.534;6.442;2023-08-01T08:36:37;94215.38;;;13.08;100.00
62634;BME280;48704;50.534;6.442;2023-08-01T08:39:02;94219.56;;;13.20;100.00
62634;BME280;48704;50.534;6.442;2023-08-01T08:41:30;94221.19;;;13.34;100.00
62634;BME280;48704;50.534;6.442;2023-08-01T08:43:59;94217.59;;;13.53;100.00
62634;BME280;48704;50.534;6.442;2023-08-01T08:46:29;94218.91;;;13.52;100.00
62634;BME280;48704;50.534;6.442;2023-08-01T08:48:56;94217.75;;;13.42;100.00
62634;BME280;48704;50.534;6.442;2023-08-01T08:51:23;94209.75;;;13.51;100.00
62634;BME280;48704;50.534;6.442;2023-08-01T08:53:51;94224.72;;;13.35;100.00
62634;BME280;48704;50.534;6.442;2023-08-01T08:56:18;94224.94;;;13.37;100.00
62634;BME280;48704;50.534;6.442;2023-08-01T08:58:45;94227.59;;;13.29;100.00
62634;BME280;48704;50.534;6.442;2023-08-01T09:01:12;94216.72;;;13.26;100.00
62634;BME280;48704;50.534;6.442;2023-08-01T09:03:38;94231.84;;;13.36;100.00
62634;BME280;48704;50.534;6.442;2023-08-01T09:06:11;94223.50;;;13.68;100.00
62634;BME280;48704;50.534;6.442;2023-08-01T09:08:39;94229.41;;;13.64;100.00
62634;BME280;48704;50.534;6.442;2023-08-01T09:11:05;94227.28;;;13.52;100.00
62634;BME280;48704;50.534;6.442;2023-08-01T09:13:30;94235.91;;;13.54;100.00
62634;BME280;48704;50.534;6.442;2023-08-01T09:15:56;94237.13;;;13.58;100.00
62634;BME280;48704;50.534;6.442;2023-08-01T09:18:21;94235.69;;;13.52;100.00
62634;BME280;48704;50.534;6.442;2023-08-01T09:20:48;94245.13;;;13.49;100.00
62634;BME280;48704;50.534;6.442;2023-08-01T09:23:15;94238.72;;;13.54;100.00
62634;BME280;48704;50.534;6.442;2023-08-01T09:25:42;94248.16;;;13.51;100.00
62634;BME280;48704;50.534;6.442;2023-08-01T09:28:22;94245.72;;;13.42;100.00
62634;BME280;48704;50.534;6.442;2023-08-01T09:30:50;94245.28;;;13.56;100.00
62634;BME280;48704;50.534;6.442;2023-08-01T09:33:17;94254.06;;;13.47;100.00
62634;BME280;48704;50.534;6.442;2023-08-01T09:35:43;94249.06;;;13.59;100.00
62634;BME280;48704;50.534;6.442;2023-08-01T09:38:14;94245.44;;;13.64;100.00
62634;BME280;48704;50.534;6.442;2023-08-01T09:40:44;94241.91;;;13.95;100.00
62634;BME280;48704;50.534;6.442;2023-08-01T09:43:13;94243.28;;;14.21;100.00
62634;BME280;48704;50.534;6.442;2023-08-01T09:45:52;94247.59;;;14.22;100.00
62634;BME280;48704;50.534;6.442;2023-08-01T09:48:28;94240.69;;;14.42;100.00
62634;BME280;48704;50.534;6.442;2023-08-01T09:51:12;94241.03;;;14.64;100.00
62634;BME280;48704;50.534;6.442;2023-08-01T09:56:15;94258.97;;;15.01;100.00
62634;BME280;48704;50.534;6.442;2023-08-01T09:58:43;94247.94;;;14.90;100.00
62634;BME280;48704;50.534;6.442;2023-08-01T10:01:08;94253.78;;;15.18;100.00
62634;BME280;48704;50.534;6.442;2023-08-01T10:03:34;94254.97;;;15.10;100.00
62634;BME280;48704;50.534;6.442;2023-08-01T10:06:00;94255.06;;;15.44;100.00
62634;BME280;48704;50.534;6.442;2023-08-01T10:08:25;94241.09;;;15.98;100.00
62634;BME280;48704;50.534;6.442;2023-08-01T10:10:52;94241.78;;;15.91;100.00
62634;BME280;48704;50.534;6.442;2023-08-01T10:13:23;94248.72;;;16.11;100.00
62634;BME280;48704;50.534;6.442;2023-08-01T10:15:50;94241.38;;;15.87;100.00
62634;BME280;48704;50.534;6.442;2023-08-01T10:18:16;94252.91;;;15.23;100.00
62634;BME280;48704;50.534;6.442;2023-08-01T10:20:43;94251.63;;;14.85;100.00
62634;BME280;48704;50.534;6.442;2023-08-01T10:23:09;94256.50;;;14.84;100.00
62634;BME280;48704;50.534;6.442;2023-08-01T10:25:35;94267.91;;;15.26;100.00
62634;BME280;48704;50.534;6.442;2023-08-01T10:28:02;94260.91;;;14.80;100.00
62634;BME280;48704;50.534;6.442;2023-08-01T10:30:29;94264.31;;;15.65;100.00
62634;BME280;48704;50.534;6.442;2023-08-01T10:32:56;94253.59;;;16.11;100.00
62634;BME280;48704;50.534;6.442;2023-08-01T10:35:51;94253.44;;;16.79;100.00
62634;BME280;48704;50.534;6.442;2023-08-01T10:38:17;94254.81;;;17.50;100.00
62634;BME280;48704;50.534;6.442;2023-08-01T10:40:43;94245.50;;;17.26;100.00
62634;BME280;48704;50.534;6.442;2023-08-01T10:43:22;94245.00;;;16.79;100.00
62634;BME280;48704;50.534;6.442;2023-08-01T10:45:47;94242.75;;;16.15;100.00
62634;BME280;48704;50.534;6.442;2023-08-01T10:48:13;94244.09;;;16.00;100.00
62634;BME280;48704;50.534;6.442;2023-08-01T10:50:39;94248.50;;;15.88;100.00
62634;BME280;48704;50.534;6.442;2023-08-01T10:53:06;94262.59;;;15.49;100.00
62634;BME280;48704;50.534;6.442;2023-08-01T10:55:45;94257.44;;;15.39;100.00
62634;BME280;48704;50.534;6.442;2023-08-01T10:58:11;94261.56;;;15.12;100.00
62634;BME280;48704;50.534;6.442;2023-08-01T11:00:37;94269.53;;;15.08;100.00
62634;BME280;48704;50.534;6.442;2023-08-01T11:03:03;94268.88;;;14.89;100.00
62634;BME280;48704;50.534;6.442;2023-08-01T11:05:28;94280.94;;;14.70;100.00
62634;BME280;48704;50.534;6.442;2023-08-01T11:07:59;94277.75;;;14.16;100.00
62634;BME280;48704;50.534;6.442;2023-08-01T11:10:26;94288.09;;;13.89;100.00
62634;BME280;48704;50.534;6.442;2023-08-01T11:12:52;94290.81;;;13.57;100.00
62634;BME280;48704;50.534;6.442;2023-08-01T11:15:18;94297.41;;;13.78;100.00
62634;BME280;48704;50.534;6.442;2023-08-01T11:17:48;94289.25;;;14.12;100.00
62634;BME280;48704;50.534;6.442;2023-08-01T11:20:15;94300.16;;;14.16;100.00
62634;BME280;48704;50.534;6.442;2023-08-01T11:23:00;94287.78;;;14.43;100.00
62634;BME280;48704;50.534;6.442;2023-08-01T11:25:40;94310.31;;;15.22;100.00
62634;BME280;48704;50.534;6.442;2023-08-01T11:28:11;94301.13;;;15.75;100.00
62634;BME280;48704;50.534;6.442;2023-08-01T11:30:37;94287.88;;;16.30;100.00
62634;BME280;48704;50.534;6.442;2023-08-01T11:33:22;94301.38;;;16.65;100.00
62634;BME280;48704;50.534;6.442;2023-08-01T11:35:52;94291.16;;;16.21;100.00
62634;BME280;48704;50.534;6.442;2023-08-01T11:38:20;94301.44;;;16.18;100.00
62634;BME280;48704;50.534;6.442;2023-08-01T11:40:47;94298.66;;;16.60;100.00
62634;BME280;48704;50.534;6.442;2023-08-01T11:43:14;94303.81;;;17.18;100.00
62634;BME280;48704;50.534;6.442;2023-08-01T11:45:54;94304.00;;;17.77;100.00
62634;BME280;48704;50.534;6.442;2023-08-01T11:48:21;94294.78;;;17.41;100.00
62634;BME280;48704;50.534;6.442;2023-08-01T11:50:46;94294.44;;;17.52;100.00
62634;BME280;48704;50.534;6.442;2023-08-01T11:53:22;94296.13;;;17.83;100.00
62634;BME280;48704;50.534;6.442;2023-08-01T11:55:51;94305.00;;;17.95;100.00
62634;BME280;48704;50.534;6.442;2023-08-01T11:58:32;94294.69;;;16.97;100.00
62634;BME280;48704;50.534;6.442;2023-08-01T12:01:15;94287.94;;;17.64;100.00
62634;BME280;48704;50.534;6.442;2023-08-01T12:03:48;94292.53;;;18.34;100.00
62634;BME280;48704;50.534;6.442;2023-08-01T12:06:14;94293.38;;;17.26;100.00
62634;BME280;48704;50.534;6.442;2023-08-01T12:08:45;94297.53;;;16.21;100.00
62634;BME280;48704;50.534;6.442;2023-08-01T12:14:00;94318.47;;;14.17;100.00
62634;BME280;48704;50.534;6.442;2023-08-01T12:16:25;94317.63;;;13.71;100.00
62634;BME280;48704;50.534;6.442;2023-08-01T12:18:51;94330.31;;;13.53;100.00
62634;BME280;48704;50.534;6.442;2023-08-01T12:21:16;94324.06;;;13.42;100.00
62634;BME280;48704;50.534;6.442;2023-08-01T12:23:41;94330.88;;;13.27;100.00
62634;BME280;48704;50.534;6.442;2023-08-01T12:26:07;94329.81;;;13.30;100.00
62634;BME280;48704;50.534;6.442;2023-08-01T12:28:32;94337.28;;;13.22;100.00
62634;BME280;48704;50.534;6.442;2023-08-01T12:30:57;94329.66;;;13.23;100.00
62634;BME280;48704;50.534;6.442;2023-08-01T12:33:24;94326.88;;;13.42;100.00
62634;BME280;48704;50.534;6.442;2023-08-01T12:35:49;94325.78;;;13.69;100.00
62634;BME280;48704;50.534;6.442;2023-08-01T12:38:14;94319.88;;;13.91;100.00
62634;BME280;48704;50.534;6.442;2023-08-01T12:40:39;94332.72;;;13.81;100.00
62634;BME280;48704;50.534;6.442;2023-08-01T12:43:05;94322.31;;;13.63;100.00
62634;BME280;48704;50.534;6.442;2023-08-01T12:45:30;94319.69;;;13.27;100.00
62634;BME280;48704;50.534;6.442;2023-08-01T12:47:55;94323.09;;;13.39;100.00
62634;BME280;48704;50.534;6.442;2023-08-01T12:50:21;94325.88;;;13.39;100.00
62634;BME280;48704;50.534;6.442;2023-08-01T12:52:46;94334.69;;;13.49;100.00
62634;BME280;48704;50.534;6.442;2023-08-01T12:55:11;94324.47;;;13.51;100.00